Time;durP1;ratioP1;P1;durP2;ratioP2;P2;SDS_P1;SDS_P2;PMS_P1;PMS_P2;Temp;Humidity;BMP_temperature;BMP_pressure;BME280_temperature;BME280_humidity;BME280_pressure;Samples;Min_cycle;Max_cycle;Signal;HPM_P1;HPM_P2
2023/01/22 00:02:02;;;;;;;12.10;11.27;;;1.10;86.00;;;;;;4992849;28;20208;-92
2023/01/22 00:04:27;;;;;;;10.27;9.27;;;1.10;86.10;;;;;;4994112;28;20174;-92
2023/01/22 00:06:53;;;;;;;10.90;10.00;;;1.00;86.20;;;;;;4993224;28;20180;-92
2023/01/22 00:09:21;;;;;;;11.90;10.67;;;1.00;86.40;;;;;;4993835;28;20208;-92
2023/01/22 00:11:49;;;;;;;10.67;9.90;;;1.00;86.30;;;;;;4995401;28;20619;-92
2023/01/22 00:14:15;;;;;;;10.17;9.47;;;1.00;86.20;;;;;;4997732;28;20219;-92
2023/01/22 00:16:40;;;;;;;13.23;12.13;;;1.00;86.20;;;;;;4997849;28;20263;-92
2023/01/22 00:19:07;;;;;;;10.40;9.63;;;1.00;86.40;;;;;;4998440;28;20216;-92
2023/01/22 00:21:33;;;;;;;10.73;10.03;;;1.00;86.50;;;;;;4996189;28;20259;-91
2023/01/22 00:23:58;;;;;;;12.20;11.20;;;1.00;86.20;;;;;;4997312;28;20586;-91
2023/01/22 00:26:24;;;;;;;13.30;11.93;;;1.00;86.30;;;;;;4997787;28;20171;-91
2023/01/22 00:28:50;;;;;;;11.10;10.30;;;1.00;86.10;;;;;;4997744;28;20282;-92
2023/01/22 00:31:16;;;;;;;10.30;9.53;;;1.00;86.20;;;;;;4997072;28;20187;-91
2023/01/22 00:33:43;;;;;;;10.40;9.60;;;0.90;86.10;;;;;;4997015;28;20181;-92
2023/01/22 00:36:12;;;;;;;9.70;8.90;;;1.00;86.00;;;;;;4996828;28;20179;-91
2023/01/22 00:38:38;;;;;;;11.10;10.17;;;1.00;85.80;;;;;;4996763;28;20189;-91
2023/01/22 00:41:06;;;;;;;10.43;9.40;;;1.00;85.80;;;;;;4996859;28;20549;-91
2023/01/22 00:43:33;;;;;;;12.77;11.60;;;1.00;85.70;;;;;;4997048;28;20682;-91
2023/01/22 00:45:59;;;;;;;12.47;11.37;;;1.00;85.80;;;;;;4996914;28;20228;-92
2023/01/22 00:48:25;;;;;;;12.37;11.27;;;0.90;85.80;;;;;;4996675;28;20184;-91
2023/01/22 00:50:50;;;;;;;13.97;12.87;;;0.90;85.60;;;;;;4995641;28;20246;-91
2023/01/22 00:53:16;;;;;;;12.77;11.70;;;0.90;85.70;;;;;;4996380;28;20643;-91
2023/01/22 00:55:51;;;;;;;12.87;11.87;;;0.90;85.80;;;;;;4996556;28;20530;-92
2023/01/22 00:58:17;;;;;;;14.93;13.73;;;0.90;86.10;;;;;;4997664;28;20196;-92
2023/01/22 01:00:42;;;;;;;13.90;12.70;;;0.90;86.50;;;;;;4997104;28;20790;-93
2023/01/22 01:03:26;;;;;;;13.10;11.93;;;0.90;86.70;;;;;;4999297;28;20192;-93
2023/01/22 01:06:12;;;;;;;14.23;13.13;;;0.80;86.60;;;;;;5001124;28;20184;-92
2023/01/22 01:08:41;;;;;;;11.97;11.17;;;0.80;86.70;;;;;;4997659;28;20659;-92
2023/01/22 01:11:10;;;;;;;16.27;14.90;;;0.80;86.70;;;;;;5002666;28;20186;-93
2023/01/22 01:13:38;;;;;;;15.97;14.73;;;0.80;86.80;;;;;;4998344;28;20172;-93
2023/01/22 01:16:11;;;;;;;15.17;13.87;;;0.80;87.00;;;;;;4996842;28;20662;-94
2023/01/22 01:18:36;;;;;;;17.93;16.23;;;0.80;87.00;;;;;;5000585;28;20208;-92
2023/01/22 01:21:03;;;;;;;16.53;15.13;;;0.80;87.10;;;;;;4998317;28;20200;-92
2023/01/22 01:23:29;;;;;;;16.83;15.30;;;0.80;87.20;;;;;;4996666;28;20234;-92
2023/01/22 01:25:55;;;;;;;16.63;15.13;;;0.80;87.20;;;;;;4998977;28;20278;-91
2023/01/22 01:28:21;;;;;;;18.17;16.20;;;0.80;87.30;;;;;;4995996;28;20675;-92
2023/01/22 01:30:48;;;;;;;16.73;15.33;;;0.80;87.40;;;;;;4995295;28;20218;-92
2023/01/22 01:33:13;;;;;;;18.37;16.47;;;0.80;87.50;;;;;;4996463;28;20258;-93
2023/01/22 01:35:39;;;;;;;16.20;14.73;;;0.80;87.50;;;;;;4996227;28;20181;-92
2023/01/22 01:38:05;;;;;;;18.40;16.80;;;0.80;87.60;;;;;;4996116;28;20176;-92
2023/01/22 01:40:30;;;;;;;17.57;16.00;;;0.80;87.60;;;;;;4994851;28;20393;-92
2023/01/22 01:42:59;;;;;;;17.80;16.10;;;0.80;87.60;;;;;;4996475;28;20283;-91
2023/01/22 01:45:28;;;;;;;17.80;16.00;;;0.80;87.70;;;;;;4996156;28;20179;-92
2023/01/22 01:47:57;;;;;;;19.63;15.17;;;0.80;87.60;;;;;;4996110;28;20185;-92
2023/01/22 01:50:25;;;;;;;19.07;17.27;;;0.80;87.70;;;;;;4994592;28;20192;-92
2023/01/22 01:52:51;;;;;;;18.97;17.30;;;0.80;87.80;;;;;;4995906;28;20643;-92
2023/01/22 01:55:21;;;;;;;14.87;13.47;;;0.80;87.90;;;;;;4995671;28;20188;-92
2023/01/22 01:57:47;;;;;;;16.27;14.90;;;0.80;87.90;;;;;;4996089;28;20172;-92
2023/01/22 02:00:14;;;;;;;18.00;16.43;;;0.80;87.90;;;;;;4995904;28;20220;-92
2023/01/22 02:02:40;;;;;;;16.27;14.77;;;0.80;87.90;;;;;;4995696;28;20190;-92
2023/01/22 02:05:08;;;;;;;19.47;15.80;;;0.80;87.80;;;;;;4995502;28;20181;-92
2023/01/22 02:07:33;;;;;;;16.60;15.00;;;0.80;87.80;;;;;;4994088;28;20204;-92
2023/01/22 02:09:59;;;;;;;15.50;14.30;;;0.80;87.80;;;;;;4995635;28;20733;-92
2023/01/22 02:12:25;;;;;;;16.80;15.40;;;0.90;87.60;;;;;;4995747;28;20197;-92
2023/01/22 02:14:52;;;;;;;16.70;15.30;;;0.80;87.70;;;;;;4995170;28;20177;-92
2023/01/22 02:17:20;;;;;;;17.50;15.90;;;0.80;87.70;;;;;;4994409;28;20629;-92
2023/01/22 02:19:46;;;;;;;16.27;14.83;;;0.90;87.70;;;;;;4995280;28;20629;-92
2023/01/22 02:22:20;;;;;;;16.53;15.03;;;0.80;87.70;;;;;;4995290;28;20239;-91
2023/01/22 02:24:47;;;;;;;16.47;14.77;;;0.80;87.80;;;;;;4995233;28;20168;-92
2023/01/22 02:27:12;;;;;;;15.57;14.33;;;0.80;87.70;;;;;;4995259;28;20260;-91
2023/01/22 02:29:38;;;;;;;16.20;14.80;;;0.90;87.70;;;;;;4994976;28;20313;-92
2023/01/22 02:32:04;;;;;;;16.17;14.77;;;0.90;87.60;;;;;;4995164;28;20189;-92
2023/01/22 02:34:30;;;;;;;15.27;13.97;;;0.90;87.70;;;;;;4993076;28;20181;-92
2023/01/22 02:36:55;;;;;;;18.63;17.13;;;0.90;87.70;;;;;;4994636;28;20181;-92
2023/01/22 02:39:21;;;;;;;16.97;15.43;;;0.80;87.60;;;;;;4993855;28;20635;-92
2023/01/22 02:41:46;;;;;;;18.30;16.73;;;0.80;87.70;;;;;;4995316;28;20204;-92
2023/01/22 02:44:12;;;;;;;17.30;15.60;;;0.90;87.70;;;;;;4995263;28;20176;-92
2023/01/22 02:46:37;;;;;;;18.97;17.37;;;0.90;87.80;;;;;;4995215;28;20174;-92
2023/01/22 02:49:03;;;;;;;18.73;17.00;;;0.90;87.90;;;;;;4995146;28;20583;-92
2023/01/22 02:51:29;;;;;;;16.80;15.17;;;0.90;87.90;;;;;;4993799;28;20193;-92
2023/01/22 02:53:54;;;;;;;18.10;16.60;;;0.80;87.80;;;;;;4994133;28;20190;-92
2023/01/22 02:56:20;;;;;;;18.30;16.70;;;0.90;87.80;;;;;;4993888;28;20182;-92
2023/01/22 02:58:46;;;;;;;18.60;16.73;;;0.90;87.80;;;;;;4994860;28;20213;-92
2023/01/22 03:01:19;;;;;;;18.27;16.40;;;0.90;87.80;;;;;;4993798;28;20586;-92
2023/01/22 03:03:47;;;;;;;17.63;16.23;;;0.90;87.70;;;;;;4995048;28;20201;-92
2023/01/22 03:06:14;;;;;;;18.10;16.47;;;0.90;87.70;;;;;;4993570;28;20191;-92
2023/01/22 03:08:43;;;;;;;19.87;17.17;;;0.90;87.80;;;;;;4995128;28;20197;-92
2023/01/22 03:11:10;;;;;;;17.00;15.30;;;0.80;87.80;;;;;;4995448;28;20243;-92
2023/01/22 03:21:48;;;;;;;17.10;15.70;;;0.80;87.80;;;;;;4995092;28;20617;-92
2023/01/22 03:24:13;;;;;;;17.57;15.87;;;0.90;87.80;;;;;;4994844;28;20172;-92
2023/01/22 03:26:39;;;;;;;18.17;16.40;;;0.90;87.80;;;;;;4994797;28;20647;-93
2023/01/22 03:29:04;;;;;;;17.13;15.83;;;0.80;87.80;;;;;;4993646;28;20745;-92
2023/01/22 03:31:30;;;;;;;16.87;15.57;;;0.90;87.80;;;;;;4994603;28;20188;-92
2023/01/22 03:33:56;;;;;;;17.43;15.73;;;0.90;87.80;;;;;;4994813;28;20188;-92
2023/01/22 03:36:22;;;;;;;18.37;16.57;;;0.90;87.80;;;;;;4994947;28;20672;-92
2023/01/22 03:38:47;;;;;;;17.43;15.93;;;0.90;87.70;;;;;;4994757;28;20201;-92
2023/01/22 03:41:16;;;;;;;16.60;15.20;;;0.90;87.80;;;;;;4993190;28;20208;-92
2023/01/22 03:43:43;;;;;;;16.37;15.07;;;0.90;87.70;;;;;;4994373;28;20183;-92
2023/01/22 03:46:13;;;;;;;15.93;14.67;;;0.90;87.60;;;;;;4995350;28;20283;-91
2023/01/22 03:48:40;;;;;;;16.07;14.63;;;0.90;87.50;;;;;;4997168;28;20256;-92
2023/01/22 03:51:10;;;;;;;14.67;13.37;;;0.90;87.50;;;;;;4997136;28;20231;-92
2023/01/22 03:53:36;;;;;;;13.87;12.80;;;0.90;87.40;;;;;;4998459;28;20168;-92
2023/01/22 03:56:04;;;;;;;13.57;12.47;;;0.90;87.40;;;;;;4998844;28;20263;-92
2023/01/22 03:58:31;;;;;;;14.73;13.53;;;0.90;87.30;;;;;;4998353;28;20621;-92
2023/01/22 04:00:59;;;;;;;16.73;15.03;;;1.00;87.30;;;;;;4998518;28;20259;-92
2023/01/22 04:03:26;;;;;;;15.13;14.03;;;1.00;87.40;;;;;;4998209;28;20178;-92
2023/01/22 04:05:53;;;;;;;14.67;13.37;;;0.90;87.30;;;;;;4998237;28;20171;-92
2023/01/22 04:08:20;;;;;;;15.27;13.73;;;0.90;87.30;;;;;;4998418;28;20197;-92
2023/01/22 04:10:45;;;;;;;16.97;15.57;;;1.00;87.50;;;;;;4998123;28;20171;-92
2023/01/22 04:13:11;;;;;;;14.40;13.20;;;0.90;87.50;;;;;;4998450;28;20237;-92
2023/01/22 04:15:36;;;;;;;16.03;14.47;;;1.00;87.50;;;;;;4998258;28;20181;-92
2023/01/22 04:18:02;;;;;;;15.63;14.30;;;0.90;87.50;;;;;;4996913;28;20263;-90
2023/01/22 04:20:27;;;;;;;15.30;13.87;;;1.00;87.50;;;;;;4997511;28;20241;-92
2023/01/22 04:22:53;;;;;;;14.53;13.40;;;0.90;87.50;;;;;;4996410;28;20713;-92
2023/01/22 04:25:18;;;;;;;14.83;13.50;;;1.00;87.60;;;;;;4997506;28;20656;-92
2023/01/22 04:27:44;;;;;;;13.63;12.33;;;1.00;87.60;;;;;;4996242;28;20567;-92
2023/01/22 04:30:10;;;;;;;13.23;12.03;;;0.90;87.60;;;;;;4997451;28;20228;-92
2023/01/22 04:32:36;;;;;;;12.57;11.57;;;1.00;87.40;;;;;;4997402;28;20642;-92
2023/01/22 04:35:03;;;;;;;13.03;11.83;;;1.00;87.50;;;;;;4996021;28;20211;-92
2023/01/22 04:37:29;;;;;;;14.67;13.27;;;1.00;87.40;;;;;;4997688;28;20658;-92
2023/01/22 04:39:55;;;;;;;12.53;11.30;;;1.00;87.30;;;;;;4997078;28;20199;-92
2023/01/22 04:42:20;;;;;;;11.93;10.93;;;1.00;87.30;;;;;;4996080;28;20193;-92
2023/01/22 04:44:46;;;;;;;14.80;13.40;;;1.00;87.30;;;;;;4996146;28;20680;-92
2023/01/22 04:47:11;;;;;;;15.07;13.77;;;1.00;87.30;;;;;;4997815;28;20659;-92
2023/01/22 04:49:37;;;;;;;9.50;8.93;;;1.00;87.40;;;;;;4996914;28;20618;-92
2023/01/22 04:52:02;;;;;;;12.50;11.50;;;1.00;87.30;;;;;;4997282;28;20227;-92
2023/01/22 04:54:28;;;;;;;15.37;13.47;;;1.00;87.30;;;;;;4997396;28;20187;-92
2023/01/22 04:56:54;;;;;;;14.63;13.33;;;1.00;87.30;;;;;;4997316;28;20257;-92
2023/01/22 04:59:19;;;;;;;14.30;12.80;;;1.10;87.30;;;;;;4996098;28;20217;-92
2023/01/22 05:01:45;;;;;;;15.13;13.83;;;1.10;87.20;;;;;;4997039;28;20206;-92
2023/01/22 05:04:10;;;;;;;13.73;12.63;;;1.10;87.20;;;;;;4997270;28;20311;-92
2023/01/22 05:06:36;;;;;;;14.83;13.47;;;1.10;87.20;;;;;;4996825;28;20268;-93
2023/01/22 05:09:02;;;;;;;14.30;12.93;;;1.10;87.20;;;;;;4996186;28;20216;-92
2023/01/22 05:11:28;;;;;;;14.63;13.27;;;1.10;87.30;;;;;;4996708;28;20184;-92
2023/01/22 05:13:53;;;;;;;15.37;13.93;;;1.10;87.10;;;;;;4997540;28;20252;-92
2023/01/22 05:16:19;;;;;;;14.70;13.40;;;1.10;87.00;;;;;;4997310;28;20193;-92
2023/01/22 05:18:44;;;;;;;14.90;13.63;;;1.10;87.00;;;;;;4997434;28;20678;-92
2023/01/22 05:21:10;;;;;;;14.97;13.60;;;1.10;86.90;;;;;;4995997;28;20235;-92
2023/01/22 05:23:36;;;;;;;14.10;12.53;;;1.10;87.00;;;;;;4996189;28;20631;-92
2023/01/22 05:26:01;;;;;;;16.13;14.63;;;1.10;87.00;;;;;;4995678;28;20177;-93
2023/01/22 05:28:27;;;;;;;13.17;12.17;;;1.10;87.10;;;;;;4996384;28;20197;-92
2023/01/22 05:30:52;;;;;;;12.83;11.83;;;1.10;87.00;;;;;;4997813;28;20179;-92
2023/01/22 05:33:17;;;;;;;14.23;12.93;;;1.10;87.00;;;;;;4997183;28;20256;-93
2023/01/22 05:35:43;;;;;;;14.20;12.90;;;1.10;87.00;;;;;;4997184;28;20185;-92
2023/01/22 05:38:09;;;;;;;13.00;11.90;;;1.10;87.20;;;;;;4996890;28;20191;-92
2023/01/22 05:40:34;;;;;;;14.97;13.37;;;1.10;87.10;;;;;;4997015;28;20208;-92
2023/01/22 05:43:02;;;;;;;14.37;13.07;;;1.10;87.10;;;;;;4996700;28;20192;-89
2023/01/22 05:45:28;;;;;;;15.13;13.80;;;1.10;87.20;;;;;;4997055;28;20195;-93
2023/01/22 05:47:53;;;;;;;15.37;14.03;;;1.10;87.20;;;;;;4996565;28;20211;-92
2023/01/22 05:50:20;;;;;;;12.70;11.60;;;1.10;87.20;;;;;;4996579;28;20201;-93
2023/01/22 05:52:46;;;;;;;15.27;13.87;;;1.10;87.10;;;;;;4997643;28;20699;-92
2023/01/22 05:55:11;;;;;;;16.33;13.83;;;1.10;87.10;;;;;;4996197;28;20181;-93
2023/01/22 05:57:37;;;;;;;14.80;13.60;;;1.10;87.00;;;;;;4995846;28;20289;-92
2023/01/22 06:00:04;;;;;;;14.43;13.23;;;1.10;87.00;;;;;;4997478;28;20221;-92
2023/01/22 06:02:30;;;;;;;14.80;13.50;;;1.10;87.00;;;;;;4995453;28;20178;-92
2023/01/22 06:04:56;;;;;;;14.87;13.43;;;1.10;86.90;;;;;;4996832;28;20180;-93
2023/01/22 06:07:21;;;;;;;14.80;13.40;;;1.20;86.80;;;;;;4997089;28;20182;-92
2023/01/22 06:09:47;;;;;;;15.17;13.87;;;1.10;86.70;;;;;;4997037;28;20192;-93
2023/01/22 06:12:14;;;;;;;14.30;13.07;;;1.20;86.70;;;;;;4997545;28;20181;-93
2023/01/22 06:14:40;;;;;;;15.20;13.93;;;1.20;86.80;;;;;;4997761;28;20593;-92
2023/01/22 06:17:06;;;;;;;15.40;13.77;;;1.10;86.70;;;;;;4995450;28;20189;-93
2023/01/22 06:19:31;;;;;;;15.07;13.77;;;1.20;86.80;;;;;;4997392;28;20200;-93
2023/01/22 06:21:57;;;;;;;14.23;13.10;;;1.10;86.80;;;;;;4995460;28;20248;-92
2023/01/22 06:24:22;;;;;;;15.33;14.03;;;1.20;86.90;;;;;;4996490;28;20169;-92
2023/01/22 06:26:48;;;;;;;17.77;16.17;;;1.20;86.90;;;;;;4997075;28;20243;-92
2023/01/22 06:29:13;;;;;;;14.73;13.43;;;1.20;86.90;;;;;;4994747;28;20690;-93
2023/01/22 06:31:39;;;;;;;15.70;14.10;;;1.20;87.00;;;;;;4996030;28;20689;-93
2023/01/22 06:34:04;;;;;;;14.13;12.93;;;1.20;87.00;;;;;;4996308;28;20172;-92
2023/01/22 06:36:30;;;;;;;15.03;13.53;;;1.20;87.00;;;;;;4996662;28;20185;-92
2023/01/22 06:38:55;;;;;;;19.30;15.03;;;1.20;87.00;;;;;;4995896;28;20200;-92
2023/01/22 06:41:22;;;;;;;17.60;14.93;;;1.20;87.00;;;;;;4996599;28;20567;-93
2023/01/22 06:43:47;;;;;;;15.60;14.13;;;1.20;87.00;;;;;;4995416;28;20221;-92
2023/01/22 06:46:13;;;;;;;14.73;13.33;;;1.20;87.00;;;;;;4995860;28;20232;-92
2023/01/22 06:48:38;;;;;;;17.77;14.83;;;1.20;87.10;;;;;;4994971;28;20205;-93
2023/01/22 06:51:04;;;;;;;15.13;13.37;;;1.20;87.00;;;;;;4995143;28;20258;-92
2023/01/22 06:53:30;;;;;;;15.47;13.90;;;1.20;87.10;;;;;;4995861;28;20184;-92
2023/01/22 06:55:58;;;;;;;15.87;13.43;;;1.20;87.10;;;;;;4996058;28;20205;-93
2023/01/22 06:58:24;;;;;;;15.20;13.90;;;1.20;87.30;;;;;;4995790;28;20213;-92
2023/01/22 07:00:49;;;;;;;15.57;14.37;;;1.20;87.30;;;;;;4995750;28;20240;-92
2023/01/22 07:03:15;;;;;;;14.60;13.07;;;1.20;87.30;;;;;;4994811;28;20168;-92
2023/01/22 07:05:40;;;;;;;14.43;12.93;;;1.20;87.30;;;;;;4996124;28;20173;-92
2023/01/22 07:08:06;;;;;;;15.43;12.33;;;1.20;87.30;;;;;;4995047;28;20262;-92
2023/01/22 07:10:31;;;;;;;15.30;13.43;;;1.20;87.30;;;;;;4995246;28;20188;-92
2023/01/22 07:12:58;;;;;;;14.40;12.97;;;1.30;87.20;;;;;;4995551;28;20564;-92
2023/01/22 07:15:24;;;;;;;15.20;13.67;;;1.20;87.30;;;;;;4995985;28;20262;-93
2023/01/22 07:17:51;;;;;;;14.60;13.30;;;1.30;87.30;;;;;;4995161;28;20549;-92
2023/01/22 07:20:18;;;;;;;13.47;12.27;;;1.20;87.30;;;;;;4993428;28;20704;-92
2023/01/22 07:22:44;;;;;;;14.73;12.97;;;1.30;87.40;;;;;;4994894;28;20173;-93
2023/01/22 07:25:09;;;;;;;12.90;11.63;;;1.30;87.40;;;;;;4995086;28;20204;-93
2023/01/22 07:27:37;;;;;;;13.93;12.50;;;1.30;87.60;;;;;;4995313;28;20644;-92
2023/01/22 07:30:03;;;;;;;16.20;14.70;;;1.30;87.60;;;;;;4995711;28;20198;-92
2023/01/22 07:32:29;;;;;;;14.17;12.97;;;1.30;87.70;;;;;;4995010;28;20228;-92
2023/01/22 07:34:54;;;;;;;16.93;14.57;;;1.30;87.80;;;;;;4995229;28;20177;-92
2023/01/22 07:37:20;;;;;;;16.33;14.77;;;1.30;87.80;;;;;;4995225;28;20211;-92
2023/01/22 07:39:45;;;;;;;17.90;15.63;;;1.30;87.90;;;;;;4995812;28;20197;-92
2023/01/22 07:42:12;;;;;;;14.77;13.47;;;1.40;87.90;;;;;;4995271;28;20211;-92
2023/01/22 07:44:39;;;;;;;14.27;12.97;;;1.30;87.90;;;;;;4995436;28;20166;-92
2023/01/22 07:47:05;;;;;;;13.30;12.20;;;1.40;88.00;;;;;;4995215;28;20169;-92
2023/01/22 07:49:30;;;;;;;15.70;13.07;;;1.40;88.00;;;;;;4995021;28;20188;-92
2023/01/22 07:51:56;;;;;;;14.60;13.27;;;1.40;88.10;;;;;;4995113;28;20181;-93
2023/01/22 07:54:22;;;;;;;15.43;14.13;;;1.40;88.30;;;;;;4994420;28;20182;-92
2023/01/22 07:56:48;;;;;;;15.73;14.13;;;1.40;88.30;;;;;;4993914;28;20555;-93
2023/01/22 07:59:14;;;;;;;17.43;13.57;;;1.40;88.40;;;;;;5003358;28;20208;-92
2023/01/22 08:01:39;;;;;;;15.00;13.70;;;1.40;88.50;;;;;;4993739;28;20343;-90
2023/01/22 08:04:05;;;;;;;15.13;13.53;;;1.50;88.50;;;;;;4993585;28;20320;-90
2023/01/22 08:06:31;;;;;;;15.57;14.07;;;1.50;88.50;;;;;;4993910;28;20177;-93
2023/01/22 08:08:58;;;;;;;17.27;15.60;;;1.50;88.50;;;;;;4996222;28;20985;-92
2023/01/22 08:11:24;;;;;;;17.03;15.10;;;1.60;88.50;;;;;;4999105;28;20197;-92
2023/01/22 08:13:49;;;;;;;16.87;15.13;;;1.60;88.50;;;;;;4998122;28;20265;-93
2023/01/22 08:16:15;;;;;;;17.13;13.93;;;1.60;88.40;;;;;;4996742;28;20265;-91
2023/01/22 08:18:40;;;;;;;15.60;14.17;;;1.60;88.40;;;;;;4995911;28;20205;-92
2023/01/22 08:21:06;;;;;;;15.20;13.60;;;1.60;88.30;;;;;;5002807;28;20194;-93
2023/01/22 08:23:32;;;;;;;16.83;14.60;;;1.60;88.30;;;;;;5007490;28;20185;-94
2023/01/22 08:26:02;;;;;;;15.87;14.50;;;1.60;88.30;;;;;;5006386;28;20333;-91
2023/01/22 08:28:27;;;;;;;17.70;16.07;;;1.60;88.40;;;;;;5015966;28;20189;-93
2023/01/22 08:31:01;;;;;;;16.67;15.27;;;1.60;88.30;;;;;;5004015;28;20175;-94
2023/01/22 08:33:28;;;;;;;18.80;16.97;;;1.60;88.30;;;;;;5000802;28;20197;-93
2023/01/22 08:35:54;;;;;;;16.70;14.97;;;1.60;88.30;;;;;;5002885;28;20205;-93
2023/01/22 08:38:19;;;;;;;16.43;14.70;;;1.70;88.40;;;;;;5002770;28;20201;-94
2023/01/22 08:40:49;;;;;;;19.43;17.60;;;1.70;88.30;;;;;;5005657;28;20208;-93
2023/01/22 08:43:15;;;;;;;18.77;15.43;;;1.70;88.30;;;;;;5000585;28;20261;-93
2023/01/22 08:45:40;;;;;;;21.03;14.80;;;1.70;88.30;;;;;;5003607;28;20224;-93
2023/01/22 08:48:06;;;;;;;17.40;15.90;;;1.70;88.30;;;;;;5000869;28;20667;-93
2023/01/22 08:50:31;;;;;;;17.20;15.57;;;1.80;88.30;;;;;;5001720;28;20639;-93
2023/01/22 08:52:57;;;;;;;17.90;16.27;;;1.80;88.30;;;;;;5005942;28;20178;-94
2023/01/22 08:55:23;;;;;;;15.27;13.97;;;1.70;88.40;;;;;;5003261;28;20200;-93
2023/01/22 08:57:55;;;;;;;15.87;14.43;;;1.80;88.30;;;;;;4999154;28;20251;-92
2023/01/22 09:00:22;;;;;;;17.03;15.20;;;1.80;88.30;;;;;;5002176;28;20216;-94
2023/01/22 09:02:47;;;;;;;17.10;15.77;;;1.80;88.30;;;;;;5007936;28;20178;-93
2023/01/22 09:05:13;;;;;;;17.63;16.13;;;1.80;88.40;;;;;;5008588;28;20668;-93
2023/01/22 09:07:39;;;;;;;19.30;17.30;;;1.80;88.50;;;;;;5007111;28;20178;-93
2023/01/22 09:10:06;;;;;;;18.60;17.10;;;1.70;88.60;;;;;;5004838;28;20216;-93
2023/01/22 09:12:33;;;;;;;18.07;15.97;;;1.80;88.70;;;;;;5003545;28;20174;-93
2023/01/22 09:14:59;;;;;;;15.23;13.70;;;1.80;88.80;;;;;;5008078;28;20185;-93
2023/01/22 09:17:24;;;;;;;18.13;16.70;;;1.80;88.80;;;;;;5001229;28;20702;-93
2023/01/22 09:19:50;;;;;;;18.60;15.63;;;1.80;88.70;;;;;;4999590;28;20204;-93
2023/01/22 09:22:15;;;;;;;17.73;15.97;;;1.80;88.70;;;;;;4998657;28;20299;-93
2023/01/22 09:24:41;;;;;;;17.40;15.60;;;1.80;88.70;;;;;;4999334;28;20243;-93
2023/01/22 09:27:07;;;;;;;17.63;15.80;;;1.80;88.70;;;;;;4998494;28;20178;-93
2023/01/22 09:29:33;;;;;;;18.97;16.53;;;1.90;88.80;;;;;;4999991;28;20194;-94
2023/01/22 09:31:59;;;;;;;17.17;15.57;;;1.90;88.80;;;;;;5004441;28;20272;-93
2023/01/22 09:34:25;;;;;;;22.87;20.60;;;1.90;88.80;;;;;;5001208;28;20662;-93
2023/01/22 09:36:50;;;;;;;16.93;15.20;;;2.00;88.80;;;;;;4998239;28;20170;-93
2023/01/22 09:39:16;;;;;;;18.03;16.37;;;2.00;88.70;;;;;;5000093;28;20194;-93
2023/01/22 09:41:47;;;;;;;19.93;17.43;;;2.00;88.60;;;;;;5001760;28;20207;-93
2023/01/22 09:44:39;;;;;;;18.03;16.43;;;2.00;88.70;;;;;;5011286;28;20186;-94
2023/01/22 09:47:15;;;;;;;21.50;15.00;;;2.00;88.70;;;;;;5006204;28;20600;-94
2023/01/22 09:50:01;;;;;;;19.57;16.73;;;2.00;88.70;;;;;;5006319;28;20225;-93
2023/01/22 09:52:30;;;;;;;17.93;16.23;;;2.00;88.70;;;;;;5000825;28;20177;-93
2023/01/22 09:54:55;;;;;;;18.90;17.07;;;2.00;88.80;;;;;;4996789;28;20171;-93
2023/01/22 09:57:21;;;;;;;20.13;16.93;;;2.00;88.90;;;;;;4999366;28;20182;-92
2023/01/22 09:59:50;;;;;;;17.40;15.83;;;2.00;88.90;;;;;;4998312;28;20216;-93
2023/01/22 10:02:35;;;;;;;19.23;17.40;;;2.00;89.00;;;;;;5001284;28;20587;-93
2023/01/22 10:05:07;;;;;;;19.53;17.80;;;2.00;89.10;;;;;;4999638;28;20175;-93
2023/01/22 10:07:38;;;;;;;20.47;18.60;;;2.00;89.10;;;;;;4998622;28;20166;-93
2023/01/22 10:10:23;;;;;;;27.00;16.93;;;2.00;89.20;;;;;;5003273;28;20201;-93
2023/01/22 10:13:26;;;;;;;18.57;16.83;;;2.10;89.20;;;;;;5010119;28;20242;-93
2023/01/22 10:15:54;;;;;;;17.67;16.03;;;2.00;89.20;;;;;;5000249;28;20185;-93
2023/01/22 10:18:28;;;;;;;20.03;18.00;;;2.10;89.20;;;;;;5000194;28;20201;-94
2023/01/22 10:20:55;;;;;;;18.17;16.47;;;2.10;89.20;;;;;;5001334;28;20193;-94
2023/01/22 10:23:24;;;;;;;19.70;17.73;;;2.10;89.30;;;;;;5002487;28;20170;-92
2023/01/22 10:25:58;;;;;;;21.53;18.47;;;2.10;89.30;;;;;;5002487;28;20204;-93
2023/01/22 10:28:26;;;;;;;18.13;16.33;;;2.20;89.20;;;;;;5010055;28;20194;-93
2023/01/22 10:30:56;;;;;;;18.37;16.30;;;2.20;89.30;;;;;;5007211;28;20184;-94
2023/01/22 10:33:23;;;;;;;18.50;16.63;;;2.20;89.30;;;;;;5002837;28;20166;-94
2023/01/22 10:35:51;;;;;;;17.77;15.97;;;2.20;89.30;;;;;;5002124;28;20185;-93
2023/01/22 10:38:23;;;;;;;20.23;17.83;;;2.20;89.30;;;;;;5002045;28;20247;-93
2023/01/22 10:41:00;;;;;;;19.20;15.87;;;2.30;89.40;;;;;;5001068;28;20204;-94
2023/01/22 10:43:34;;;;;;;19.37;17.57;;;2.30;89.30;;;;;;4997056;28;20197;-94
2023/01/22 10:46:16;;;;;;;20.13;18.13;;;2.30;89.40;;;;;;5000198;28;20166;-94
2023/01/22 10:48:42;;;;;;;19.80;17.13;;;2.30;89.40;;;;;;4998414;28;20201;-93
2023/01/22 10:51:21;;;;;;;19.80;17.40;;;2.30;89.30;;;;;;4997911;28;20637;-93
2023/01/22 10:53:55;;;;;;;19.53;17.70;;;2.40;89.30;;;;;;5001940;28;20181;-93
2023/01/22 10:56:35;;;;;;;19.00;17.40;;;2.40;89.20;;;;;;5002093;28;20224;-94
2023/01/22 10:59:24;;;;;;;18.87;16.87;;;2.50;89.20;;;;;;4998972;28;20221;-90
2023/01/22 11:02:13;;;;;;;20.33;17.27;;;2.60;89.10;;;;;;5003168;28;20210;-93
2023/01/22 11:04:39;;;;;;;16.87;15.43;;;2.60;89.10;;;;;;4998361;28;20182;-92
2023/01/22 11:07:10;;;;;;;17.17;15.67;;;2.60;88.90;;;;;;4999501;28;20572;-93
2023/01/22 11:09:59;;;;;;;22.70;20.47;;;2.60;88.80;;;;;;5001748;28;20296;-94
2023/01/22 11:12:34;;;;;;;21.63;16.97;;;2.70;88.80;;;;;;4995830;28;20170;-92
2023/01/22 11:15:20;;;;;;;18.13;16.07;;;2.70;88.80;;;;;;4994732;28;20228;-92
2023/01/22 11:17:50;;;;;;;18.23;15.93;;;2.80;88.60;;;;;;4995973;28;20238;-93
2023/01/22 11:20:19;;;;;;;20.47;17.47;;;2.80;88.60;;;;;;4998168;28;20202;-94
2023/01/22 11:22:52;;;;;;;17.03;15.43;;;2.80;88.60;;;;;;4997749;28;20170;-91
2023/01/22 11:25:18;;;;;;;19.40;16.23;;;2.80;88.60;;;;;;4999817;28;20248;-93
2023/01/22 11:27:54;;;;;;;17.20;15.47;;;2.80;88.60;;;;;;4995844;28;20178;-92
2023/01/22 11:30:37;;;;;;;20.23;14.50;;;2.70;88.50;;;;;;4995602;28;20190;-92
2023/01/22 11:33:25;;;;;;;18.33;16.60;;;2.80;88.50;;;;;;4994151;28;20541;-93
2023/01/22 11:36:16;;;;;;;18.83;16.33;;;2.80;88.60;;;;;;4996502;28;20174;-93
2023/01/22 11:39:01;;;;;;;16.93;15.20;;;2.80;88.50;;;;;;4995631;28;20208;-94
2023/01/22 11:41:47;;;;;;;17.63;15.53;;;2.80;88.60;;;;;;4993535;28;20667;-89
2023/01/22 11:44:44;;;;;;;18.73;16.40;;;2.80;88.60;;;;;;4993792;28;20168;-89
2023/01/22 11:47:25;;;;;;;18.03;16.33;;;2.80;88.70;;;;;;4994780;28;20543;-92
2023/01/22 11:50:20;;;;;;;18.47;15.20;;;2.90;88.80;;;;;;4993978;28;20284;-92
2023/01/22 11:52:53;;;;;;;17.30;15.43;;;2.90;88.80;;;;;;4994811;28;20158;-93
2023/01/22 11:55:41;;;;;;;17.47;16.03;;;2.90;88.60;;;;;;4994970;28;20229;-93
2023/01/22 11:58:45;;;;;;;15.07;13.70;;;3.00;88.70;;;;;;4993089;28;20581;-92
2023/01/22 12:01:10;;;;;;;17.30;15.70;;;3.00;88.70;;;;;;5000783;28;20213;-93
2023/01/22 12:03:51;;;;;;;17.57;14.87;;;3.10;88.80;;;;;;5008708;28;20214;-94
2023/01/22 12:06:44;;;;;;;17.73;15.23;;;3.10;88.70;;;;;;5007286;28;20185;-93
2023/01/22 12:09:40;;;;;;;16.23;14.63;;;3.20;88.50;;;;;;5013101;28;20270;-93
2023/01/22 12:12:25;;;;;;;16.03;14.50;;;3.20;88.20;;;;;;5010788;28;20198;-94
2023/01/22 12:14:58;;;;;;;20.17;15.10;;;3.20;88.10;;;;;;5009583;28;20292;-93
2023/01/22 12:17:44;;;;;;;17.73;13.47;;;3.20;88.00;;;;;;5168579;23;20216;-90
2023/01/22 12:20:16;;;;;;;15.90;13.57;;;3.30;87.90;;;;;;5022592;28;20240;-93
2023/01/22 12:23:14;;;;;;;15.03;13.63;;;3.30;88.00;;;;;;5089667;23;20230;-93
2023/01/22 12:25:53;;;;;;;18.17;14.27;;;3.30;88.00;;;;;;5007802;28;20193;-92
2023/01/22 12:28:29;;;;;;;15.03;13.77;;;3.30;88.00;;;;;;5002225;28;20216;-90
2023/01/22 12:31:08;;;;;;;15.83;14.30;;;3.20;87.80;;;;;;4999860;28;20529;-92
2023/01/22 12:33:39;;;;;;;16.73;15.07;;;3.30;87.80;;;;;;5008205;28;20170;-91
2023/01/22 12:36:08;;;;;;;15.27;13.77;;;3.20;87.80;;;;;;5008675;28;20158;-92
2023/01/22 12:38:46;;;;;;;19.37;14.27;;;3.20;87.80;;;;;;5008160;28;20202;-92
2023/01/22 12:41:37;;;;;;;16.20;13.83;;;3.20;87.70;;;;;;5003591;28;20197;-91
2023/01/22 12:44:18;;;;;;;14.97;13.60;;;3.20;87.70;;;;;;5002358;28;20171;-91
2023/01/22 12:47:09;;;;;;;15.50;13.90;;;3.20;87.70;;;;;;5000830;28;20546;-92
2023/01/22 12:49:45;;;;;;;20.83;15.07;;;3.20;87.80;;;;;;5000347;28;20669;-91
2023/01/22 12:52:36;;;;;;;23.50;16.13;;;3.20;87.90;;;;;;4999495;28;20718;-91
2023/01/22 12:55:27;;;;;;;15.33;13.80;;;3.20;87.90;;;;;;5000718;28;20182;-92
2023/01/22 12:57:53;;;;;;;15.87;14.27;;;3.20;87.90;;;;;;4999835;28;20253;-91